Time;durP1;ratioP1;P1;durP2;ratioP2;P2;SDS_P1;SDS_P2;PMS_P1;PMS_P2;Temp;Humidity;BMP_temperature;BMP_pressure;BME280_temperature;BME280_humidity;BME280_pressure;Samples;Min_cycle;Max_cycle;Signal;HPM_P1;HPM_P2
2022/09/11 00:01:42;;;;;;;;;;;;;;;22.00;81.84;96794.45;587178;241;62993;-74
2022/09/11 00:04:10;;;;;;;;;;;;;;;22.00;81.81;96802.48;587193;241;64676;-74
2022/09/11 00:06:37;;;;;;;;;;;;;;;22.00;81.87;96801.69;587200;241;64186;-74
2022/09/11 00:09:05;;;;;;;;;;;;;;;22.00;81.83;96790.98;587167;241;64980;-74
2022/09/11 00:11:35;;;;;;;;;;;;;;;22.00;81.85;96797.13;587171;241;66949;-74
2022/09/11 00:14:02;;;;;;;;;;;;;;;22.01;81.94;96779.19;587151;241;64993;-74
2022/09/11 00:16:37;;;;;;;;;;;;;;;22.00;81.92;96788.31;587183;241;62904;-74
2022/09/11 00:19:06;;;;;;;;;;;;;;;22.00;81.88;96782.96;586628;241;64590;-73
2022/09/11 00:21:35;;;;;;;;;;;;;;;22.00;81.91;96774.94;585285;242;66950;-74
2022/09/11 00:24:03;;;;;;;;;;;;;;;22.01;81.98;96784.55;585265;242;65116;-74
2022/09/11 00:26:31;;;;;;;;;;;;;;;22.00;81.98;96774.94;585284;242;66921;-74
2022/09/11 00:29:00;;;;;;;;;;;;;;;22.00;81.99;96772.26;585266;242;64936;-74
2022/09/11 00:31:28;;;;;;;;;;;;;;;22.00;82.00;96774.94;585273;242;62995;-74
2022/09/11 00:33:56;;;;;;;;;;;;;;;22.00;82.04;96767.70;585271;242;66793;-74
2022/09/11 00:36:25;;;;;;;;;;;;;;;22.00;82.01;96774.94;585282;242;64788;-74
2022/09/11 00:38:53;;;;;;;;;;;;;;;22.00;81.97;96781.08;585238;242;65155;-74
2022/09/11 00:41:23;;;;;;;;;;;;;;;22.00;81.95;96794.45;585265;242;65039;-74
2022/09/11 00:43:58;;;;;;;;;;;;;;;22.00;82.04;96789.10;585273;242;64866;-74
2022/09/11 00:46:27;;;;;;;;;;;;;;;22.01;82.06;96797.92;585266;242;62997;-74
2022/09/11 00:48:57;;;;;;;;;;;;;;;21.99;82.07;96792.87;583693;240;64914;-74
2022/09/11 00:51:26;;;;;;;;;;;;;;;22.00;82.03;96799.02;585260;242;64609;-74
2022/09/11 00:53:55;;;;;;;;;;;;;;;22.00;82.06;96799.02;585262;242;65092;-74
2022/09/11 00:56:24;;;;;;;;;;;;;;;22.00;82.10;96796.34;585296;242;66811;-74
2022/09/11 00:58:53;;;;;;;;;;;;;;;22.00;82.17;96796.34;585284;242;66756;-74
2022/09/11 01:01:21;;;;;;;;;;;;;;;22.00;82.14;96797.13;585267;242;65082;-74
2022/09/11 01:03:48;;;;;;;;;;;;;;;22.00;82.16;96796.34;585265;242;67079;-74
2022/09/11 01:06:16;;;;;;;;;;;;;;;22.00;82.18;96799.80;585248;242;66823;-74
2022/09/11 01:08:44;;;;;;;;;;;;;;;22.00;82.18;96799.80;585281;242;62954;-74
2022/09/11 01:11:22;;;;;;;;;;;;;;;22.00;82.16;96799.02;585255;242;66990;-74
2022/09/11 01:14:03;;;;;;;;;;;;;;;22.00;82.16;96799.02;585133;242;66880;-74
2022/09/11 01:16:38;;;;;;;;;;;;;;;22.00;82.18;96782.96;585042;242;65099;-74
2022/09/11 01:19:22;;;;;;;;;;;;;;;22.00;82.25;96785.63;585798;241;64847;-73
2022/09/11 01:21:52;;;;;;;;;;;;;;;21.99;82.23;96784.84;574560;247;64581;-74
2022/09/11 01:24:21;;;;;;;;;;;;;;;22.00;82.25;96782.96;583212;241;65257;-73
2022/09/11 01:26:51;;;;;;;;;;;;;;;22.00;82.28;96796.34;585605;241;67021;-73
2022/09/11 01:29:20;;;;;;;;;;;;;;;21.99;82.24;96784.84;587127;241;67152;-73
2022/09/11 01:32:08;;;;;;;;;;;;;;;21.99;82.27;96784.84;587204;241;62998;-73
2022/09/11 01:34:46;;;;;;;;;;;;;;;21.99;82.29;96778.67;587211;241;66942;-73
2022/09/11 01:37:16;;;;;;;;;;;;;;;21.99;82.34;96774.14;587011;241;66877;-73
2022/09/11 01:39:45;;;;;;;;;;;;;;;21.99;82.28;96778.67;587180;241;63021;-73
2022/09/11 01:42:15;;;;;;;;;;;;;;;21.98;82.29;96783.23;587090;241;67060;-73
2022/09/11 01:44:44;;;;;;;;;;;;;;;21.99;82.33;96779.49;587200;241;64762;-73
2022/09/11 01:47:12;;;;;;;;;;;;;;;22.00;82.32;96777.61;587214;241;63105;-73
2022/09/11 01:49:41;;;;;;;;;;;;;;;21.99;82.34;96773.31;587199;241;66885;-73
2022/09/11 01:52:11;;;;;;;;;;;;;;;21.99;82.40;96774.14;587191;241;66972;-73
2022/09/11 01:54:41;;;;;;;;;;;;;;;22.00;82.40;96783.75;587181;241;65127;-73
2022/09/11 01:57:12;;;;;;;;;;;;;;;22.00;82.43;96774.94;587182;241;65122;-73
2022/09/11 01:59:41;;;;;;;;;;;;;;;21.99;82.40;96774.14;586518;241;64524;-74
2022/09/11 02:02:10;;;;;;;;;;;;;;;22.00;82.46;96774.94;587201;241;65172;-73
2022/09/11 02:04:39;;;;;;;;;;;;;;;21.99;82.44;96773.31;587199;241;67143;-73
2022/09/11 02:07:09;;;;;;;;;;;;;;;21.98;82.45;96775.20;586996;241;66904;-73
2022/09/11 02:09:39;;;;;;;;;;;;;;;21.99;82.44;96768.79;587194;241;65048;-73
2022/09/11 02:12:08;;;;;;;;;;;;;;;21.99;82.46;96773.31;586907;241;64545;-73
2022/09/11 02:14:37;;;;;;;;;;;;;;;21.98;82.43;96772.53;587167;241;67023;-73
2022/09/11 02:17:12;;;;;;;;;;;;;;;21.99;82.49;96770.64;587178;241;65091;-74
2022/09/11 02:19:40;;;;;;;;;;;;;;;21.99;82.55;96774.14;587155;241;66945;-72
2022/09/11 02:22:07;;;;;;;;;;;;;;;21.99;82.53;96773.31;587190;241;64604;-73
2022/09/11 02:24:37;;;;;;;;;;;;;;;21.99;82.51;96766.11;587203;241;65062;-73
2022/09/11 02:27:06;;;;;;;;;;;;;;;21.99;82.53;96767.97;587199;241;66977;-73
2022/09/11 02:29:33;;;;;;;;;;;;;;;21.99;82.52;96765.29;587163;241;64828;-73
2022/09/11 02:32:03;;;;;;;;;;;;;;;21.99;82.60;96765.29;587193;241;65161;-73
2022/09/11 02:34:33;;;;;;;;;;;;;;;21.99;82.60;96763.44;587168;241;64836;-73
2022/09/11 02:37:14;;;;;;;;;;;;;;;21.99;82.58;96759.94;587083;241;64293;-73
2022/09/11 02:39:46;;;;;;;;;;;;;;;21.98;82.69;96758.36;587171;241;64942;-73
2022/09/11 02:42:18;;;;;;;;;;;;;;;21.99;82.67;96762.61;586985;241;66860;-73
2022/09/11 02:44:50;;;;;;;;;;;;;;;21.98;82.71;96767.17;587166;241;67123;-73
2022/09/11 02:47:35;;;;;;;;;;;;;;;21.99;82.74;96755.41;587185;241;65048;-73
2022/09/11 02:50:06;;;;;;;;;;;;;;;21.98;82.71;96761.83;587207;241;64567;-73
2022/09/11 02:52:55;;;;;;;;;;;;;;;21.99;82.72;96767.97;587075;241;64493;-73
2022/09/11 02:55:30;;;;;;;;;;;;;;;21.98;82.72;96764.50;587202;241;65276;-73
2022/09/11 02:58:01;;;;;;;;;;;;;;;21.99;82.70;96768.79;587100;241;64487;-73
2022/09/11 03:00:30;;;;;;;;;;;;;;;21.99;82.71;96765.29;587203;241;64958;-73
2022/09/11 03:02:58;;;;;;;;;;;;;;;21.98;82.75;96763.70;587204;241;65096;-73
2022/09/11 03:05:27;;;;;;;;;;;;;;;21.98;82.75;96766.38;587187;241;64498;-73
2022/09/11 03:07:55;;;;;;;;;;;;;;;21.99;82.73;96765.29;587184;241;65782;-74
2022/09/11 03:10:23;;;;;;;;;;;;;;;21.99;82.74;96767.97;587180;241;65274;-73
2022/09/11 03:12:50;;;;;;;;;;;;;;;21.98;82.75;96766.38;587186;241;67273;-73
2022/09/11 03:15:18;;;;;;;;;;;;;;;21.98;82.77;96763.70;587178;241;64933;-73
2022/09/11 03:17:46;;;;;;;;;;;;;;;21.98;82.78;96766.38;587181;241;63830;-74
2022/09/11 03:20:14;;;;;;;;;;;;;;;21.99;82.80;96763.44;585667;241;64527;-73
2022/09/11 03:22:42;;;;;;;;;;;;;;;21.97;82.82;96760.23;585264;242;66888;-73
2022/09/11 03:25:10;;;;;;;;;;;;;;;21.99;82.85;96759.94;585279;242;65139;-73
2022/09/11 03:27:38;;;;;;;;;;;;;;;21.98;82.90;96756.47;585283;242;64578;-73
2022/09/11 03:30:07;;;;;;;;;;;;;;;21.98;82.88;96755.68;585277;242;47231;-73
2022/09/11 03:32:35;;;;;;;;;;;;;;;21.99;82.85;96767.97;585274;242;65168;-73
2022/09/11 03:35:02;;;;;;;;;;;;;;;21.97;82.84;96765.59;585237;242;66917;-73
2022/09/11 03:37:31;;;;;;;;;;;;;;;21.97;82.85;96765.59;585279;242;66478;-73
2022/09/11 03:40:00;;;;;;;;;;;;;;;21.98;82.84;96766.38;585273;242;65516;-74
2022/09/11 03:42:27;;;;;;;;;;;;;;;21.98;82.86;96771.73;585251;242;64823;-73
2022/09/11 03:44:55;;;;;;;;;;;;;;;21.98;82.82;96780.55;585277;242;66599;-73
2022/09/11 03:47:23;;;;;;;;;;;;;;;21.98;82.88;96783.23;585273;242;65043;-73
2022/09/11 03:49:52;;;;;;;;;;;;;;;21.98;82.89;96779.76;585240;242;66763;-73
2022/09/11 03:52:21;;;;;;;;;;;;;;;21.98;82.87;96777.87;585310;242;64139;-73
2022/09/11 03:54:49;;;;;;;;;;;;;;;21.98;82.82;96791.25;585269;242;63004;-73
2022/09/11 03:57:17;;;;;;;;;;;;;;;21.98;82.89;96795.81;585263;242;64851;-73
2022/09/11 03:59:44;;;;;;;;;;;;;;;21.98;82.89;96793.14;585267;242;67129;-73
2022/09/11 04:02:12;;;;;;;;;;;;;;;21.98;82.91;96793.93;585287;242;62974;-74
2022/09/11 04:04:40;;;;;;;;;;;;;;;21.99;82.94;96802.75;585269;242;64607;-73
2022/09/11 04:07:07;;;;;;;;;;;;;;;21.98;82.98;96801.95;585257;242;66852;-73
2022/09/11 04:09:35;;;;;;;;;;;;;;;21.97;83.01;96803.05;585232;242;63065;-73
2022/09/11 04:12:02;;;;;;;;;;;;;;;21.98;82.96;96801.17;585231;242;64697;-73
2022/09/11 04:14:30;;;;;;;;;;;;;;;21.98;83.04;96798.48;585277;242;66903;-73
2022/09/11 04:16:58;;;;;;;;;;;;;;;21.98;83.02;96803.84;585258;242;63207;-73
2022/09/11 04:19:28;;;;;;;;;;;;;;;21.97;83.04;96805.72;586041;241;66647;-73
2022/09/11 04:21:55;;;;;;;;;;;;;;;21.98;83.10;96814.55;587165;241;66679;-73
2022/09/11 04:24:23;;;;;;;;;;;;;;;21.97;83.12;96819.11;587156;241;63827;-73
2022/09/11 04:26:50;;;;;;;;;;;;;;;21.98;83.13;96814.55;587200;241;65201;-73
2022/09/11 04:29:21;;;;;;;;;;;;;;;21.98;83.10;96809.98;587149;241;48059;-74
2022/09/11 04:31:49;;;;;;;;;;;;;;;21.97;83.11;96821.78;587169;241;63055;-73
2022/09/11 04:34:17;;;;;;;;;;;;;;;21.97;83.11;96815.64;587151;241;67111;-73
2022/09/11 04:36:44;;;;;;;;;;;;;;;21.97;83.13;96813.75;587169;241;66801;-73
2022/09/11 04:39:13;;;;;;;;;;;;;;;21.97;83.15;96819.11;587195;241;45561;-73
2022/09/11 04:41:43;;;;;;;;;;;;;;;21.98;83.19;96817.22;587234;241;64521;-73
2022/09/11 04:44:10;;;;;;;;;;;;;;;21.97;83.15;96818.31;587172;241;64820;-73
2022/09/11 04:46:40;;;;;;;;;;;;;;;21.98;83.16;96817.22;587168;241;46604;-73
2022/09/11 04:49:09;;;;;;;;;;;;;;;21.98;83.18;96819.89;587160;241;65651;-73
2022/09/11 04:51:37;;;;;;;;;;;;;;;21.97;83.17;96816.42;587174;241;65634;-73
2022/09/11 04:54:06;;;;;;;;;;;;;;;21.98;83.15;96814.55;587192;241;65017;-74
2022/09/11 04:56:37;;;;;;;;;;;;;;;21.98;83.20;96809.20;587166;241;66859;-73
2022/09/11 04:59:12;;;;;;;;;;;;;;;21.97;83.27;96803.05;587165;241;65324;-73
2022/09/11 05:01:39;;;;;;;;;;;;;;;21.97;83.20;96810.28;587082;241;65079;-73
2022/09/11 05:04:07;;;;;;;;;;;;;;;21.98;83.16;96809.20;587157;241;67013;-73
2022/09/11 05:06:36;;;;;;;;;;;;;;;21.96;83.20;96806.78;587236;241;66634;-73
2022/09/11 05:09:07;;;;;;;;;;;;;;;21.97;83.16;96811.08;587207;241;65096;-73
2022/09/11 05:11:37;;;;;;;;;;;;;;;21.97;83.15;96803.05;587167;241;64719;-73
2022/09/11 05:14:04;;;;;;;;;;;;;;;21.97;83.18;96799.58;587142;241;65031;-73
2022/09/11 05:16:34;;;;;;;;;;;;;;;21.96;83.26;96806.78;587171;241;62861;-73
2022/09/11 05:19:03;;;;;;;;;;;;;;;21.97;83.34;96803.05;586596;241;66964;-73
2022/09/11 05:21:32;;;;;;;;;;;;;;;21.97;83.33;96807.61;585274;242;66891;-73
2022/09/11 05:24:00;;;;;;;;;;;;;;;21.97;83.34;96810.28;585227;242;63006;-73
2022/09/11 05:26:30;;;;;;;;;;;;;;;21.97;83.33;96799.58;585209;242;66831;-73
2022/09/11 05:29:00;;;;;;;;;;;;;;;21.96;83.28;96806.78;585094;241;64691;-73
2022/09/11 05:31:30;;;;;;;;;;;;;;;21.96;83.30;96806.78;585234;242;62822;-73
2022/09/11 05:33:59;;;;;;;;;;;;;;;21.96;83.25;96801.44;585255;242;64611;-73
2022/09/11 05:36:27;;;;;;;;;;;;;;;21.97;83.20;96807.61;585233;242;66848;-73
2022/09/11 05:38:55;;;;;;;;;;;;;;;21.95;83.22;96805.99;585208;242;65091;-73
2022/09/11 05:41:23;;;;;;;;;;;;;;;21.95;83.25;96814.02;585225;242;67354;-73
2022/09/11 05:43:50;;;;;;;;;;;;;;;21.97;83.29;96807.61;585221;242;64174;-73
2022/09/11 05:46:19;;;;;;;;;;;;;;;21.97;83.29;96807.61;585235;242;63044;-73
2022/09/11 05:48:48;;;;;;;;;;;;;;;21.97;83.32;96815.64;585270;242;64742;-74
2022/09/11 05:51:22;;;;;;;;;;;;;;;21.95;83.33;96805.99;585214;242;66869;-73
2022/09/11 05:53:49;;;;;;;;;;;;;;;21.97;83.33;96815.64;584905;242;65072;-73
2022/09/11 05:56:17;;;;;;;;;;;;;;;21.95;83.37;96811.34;585228;242;66791;-73
2022/09/11 05:58:46;;;;;;;;;;;;;;;21.96;83.42;96806.78;585207;242;66729;-74
2022/09/11 06:01:20;;;;;;;;;;;;;;;21.95;83.46;96811.34;585281;242;62839;-73
2022/09/11 06:03:49;;;;;;;;;;;;;;;21.97;83.53;96807.61;585203;242;66935;-73
2022/09/11 06:06:19;;;;;;;;;;;;;;;21.95;83.52;96800.64;585195;242;66838;-73
2022/09/11 06:08:47;;;;;;;;;;;;;;;21.97;83.55;96802.25;585226;242;63069;-73
2022/09/11 06:11:16;;;;;;;;;;;;;;;21.96;83.58;96793.41;585227;242;67010;-73
2022/09/11 06:13:45;;;;;;;;;;;;;;;21.95;83.49;96807.87;585215;242;66863;-73
2022/09/11 06:16:14;;;;;;;;;;;;;;;21.95;83.04;96802.53;585252;242;62729;-73
2022/09/11 06:18:42;;;;;;;;;;;;;;;21.95;82.21;96808.67;585186;242;67293;-73
2022/09/11 06:21:11;;;;;;;;;;;;;;;21.95;82.14;96816.70;585252;242;64479;-74
2022/09/11 06:23:41;;;;;;;;;;;;;;;21.96;82.47;96814.81;585020;242;45117;-74
2022/09/11 06:26:13;;;;;;;;;;;;;;;21.98;82.99;96817.22;585228;242;66821;-74
2022/09/11 06:28:41;;;;;;;;;;;;;;;21.98;83.25;96811.87;585220;242;67084;-73
2022/09/11 06:31:11;;;;;;;;;;;;;;;21.98;83.40;96814.55;580204;242;64198;-74
2022/09/11 06:33:39;;;;;;;;;;;;;;;21.99;83.44;96803.58;585233;242;66930;-74
2022/09/11 06:36:09;;;;;;;;;;;;;;;21.99;83.51;96808.10;585205;242;64743;-73
2022/09/11 06:38:39;;;;;;;;;;;;;;;21.99;83.51;96800.08;585224;242;65062;-73
2022/09/11 06:41:11;;;;;;;;;;;;;;;22.00;83.57;96807.83;585226;242;67034;-74
2022/09/11 06:43:39;;;;;;;;;;;;;;;22.00;83.52;96809.72;585263;242;66802;-74
2022/09/11 06:46:09;;;;;;;;;;;;;;;22.00;83.48;96807.05;585238;242;65012;-74
2022/09/11 06:48:36;;;;;;;;;;;;;;;22.00;83.54;96807.83;585219;242;66705;-73
2022/09/11 06:51:06;;;;;;;;;;;;;;;22.02;83.57;96812.91;585215;242;64649;-72
2022/09/11 06:53:33;;;;;;;;;;;;;;;22.01;83.52;96808.63;585205;242;65094;-72
2022/09/11 06:56:03;;;;;;;;;;;;;;;22.02;83.53;96804.89;585166;242;49045;-73
2022/09/11 06:58:31;;;;;;;;;;;;;;;22.01;83.50;96803.27;585200;242;64801;-73
2022/09/11 07:01:06;;;;;;;;;;;;;;;22.02;83.46;96802.21;585198;242;64941;-73
2022/09/11 07:03:34;;;;;;;;;;;;;;;22.02;83.44;96803.00;585226;242;64874;-73
2022/09/11 07:06:02;;;;;;;;;;;;;;;22.02;83.39;96808.36;585215;242;66905;-73
2022/09/11 07:08:29;;;;;;;;;;;;;;;22.02;83.35;96810.23;585216;242;65053;-73
2022/09/11 07:10:59;;;;;;;;;;;;;;;22.02;83.36;96808.36;585260;242;64780;-73
2022/09/11 07:13:28;;;;;;;;;;;;;;;22.04;83.51;96808.06;585111;242;67069;-73
2022/09/11 07:16:02;;;;;;;;;;;;;;;22.04;83.46;96810.73;585207;242;65081;-73
2022/09/11 07:18:35;;;;;;;;;;;;;;;22.04;83.41;96808.06;585145;242;67070;-73
2022/09/11 07:21:07;;;;;;;;;;;;;;;22.04;83.38;96813.41;585220;242;66816;-73
2022/09/11 07:23:35;;;;;;;;;;;;;;;22.03;83.38;96809.94;585248;242;65405;-73
2022/09/11 07:26:04;;;;;;;;;;;;;;;22.03;83.34;96811.83;585221;242;66927;-73
2022/09/11 07:28:33;;;;;;;;;;;;;;;22.04;83.32;96818.77;585230;242;66728;-73
2022/09/11 07:31:11;;;;;;;;;;;;;;;22.04;83.32;96821.44;585214;242;63011;-73
2022/09/11 07:33:41;;;;;;;;;;;;;;;22.04;83.27;96819.55;585224;242;67105;-73
2022/09/11 07:36:10;;;;;;;;;;;;;;;22.05;83.24;96812.34;585245;242;66519;-73
2022/09/11 07:38:40;;;;;;;;;;;;;;;22.04;83.23;96808.84;585314;242;46352;-73
2022/09/11 07:41:08;;;;;;;;;;;;;;;22.04;83.26;96816.09;585223;242;64521;-73
2022/09/11 07:43:36;;;;;;;;;;;;;;;22.06;83.28;96813.93;585221;242;66971;-73
2022/09/11 07:46:05;;;;;;;;;;;;;;;22.05;83.25;96809.67;585219;242;65069;-73
2022/09/11 07:48:33;;;;;;;;;;;;;;;22.05;83.18;96812.34;585224;242;64392;-73
2022/09/11 07:51:04;;;;;;;;;;;;;;;22.06;83.23;96811.25;585264;242;66533;-73
2022/09/11 07:53:33;;;;;;;;;;;;;;;22.05;83.24;96812.34;585262;242;65022;-73
2022/09/11 07:56:02;;;;;;;;;;;;;;;22.05;83.26;96802.44;585209;242;66895;-74
2022/09/11 07:58:34;;;;;;;;;;;;;;;22.06;83.28;96804.02;585212;242;66804;-73
2022/09/11 08:01:02;;;;;;;;;;;;;;;22.05;83.30;96805.11;585230;242;63022;-73
2022/09/11 08:03:30;;;;;;;;;;;;;;;22.06;83.31;96811.25;585192;242;66814;-73
2022/09/11 08:06:01;;;;;;;;;;;;;;;22.06;83.28;96806.70;585243;242;64834;-74
2022/09/11 08:08:28;;;;;;;;;;;;;;;22.07;83.29;96808.31;585181;242;65114;-73
2022/09/11 08:10:57;;;;;;;;;;;;;;;22.06;83.32;96811.25;585216;242;67243;-73
2022/09/11 08:13:24;;;;;;;;;;;;;;;22.06;83.32;96811.25;585213;242;64839;-73
2022/09/11 08:15:52;;;;;;;;;;;;;;;22.07;83.36;96819.02;585197;242;65116;-73
2022/09/11 08:18:19;;;;;;;;;;;;;;;22.07;83.33;96812.84;585246;242;66956;-73
2022/09/11 08:20:47;;;;;;;;;;;;;;;22.07;83.34;96813.66;587088;241;64574;-73
2022/09/11 08:23:15;;;;;;;;;;;;;;;22.06;83.34;96809.38;587126;241;63056;-73
2022/09/11 08:25:42;;;;;;;;;;;;;;;22.07;83.33;96812.84;587166;241;66956;-73
2022/09/11 08:28:10;;;;;;;;;;;;;;;22.06;83.25;96797.88;587158;241;65082;-73
2022/09/11 08:30:38;;;;;;;;;;;;;;;22.06;83.24;96801.34;587179;241;62953;-74
2022/09/11 08:33:07;;;;;;;;;;;;;;;22.07;83.30;96796.78;587164;241;66928;-73
2022/09/11 08:35:35;;;;;;;;;;;;;;;22.08;83.30;96798.40;587125;241;66877;-74
2022/09/11 08:38:03;;;;;;;;;;;;;;;22.07;83.24;96794.11;587162;241;63011;-74
2022/09/11 08:40:31;;;;;;;;;;;;;;;22.07;83.24;96786.91;587152;241;67060;-74
2022/09/11 08:43:01;;;;;;;;;;;;;;;22.07;83.19;96788.76;587184;241;64755;-73
2022/09/11 08:45:30;;;;;;;;;;;;;;;22.07;83.17;96786.08;587216;241;65103;-73
2022/09/11 08:48:00;;;;;;;;;;;;;;;22.07;83.23;96778.05;587179;241;47634;-74
2022/09/11 08:50:30;;;;;;;;;;;;;;;22.07;83.23;96772.70;587203;241;66500;-74
2022/09/11 08:52:59;;;;;;;;;;;;;;;22.07;83.27;96775.38;587103;241;63115;-74
2022/09/11 08:55:39;;;;;;;;;;;;;;;22.07;83.27;96776.20;587219;241;46555;-73
2022/09/11 08:58:20;;;;;;;;;;;;;;;22.07;83.25;96770.84;587116;241;67278;-73
2022/09/11 09:00:55;;;;;;;;;;;;;;;22.08;83.23;96774.31;587085;241;65116;-73
2022/09/11 09:03:41;;;;;;;;;;;;;;;22.07;83.25;96770.84;580791;241;66850;-73
2022/09/11 09:06:10;;;;;;;;;;;;;;;22.08;83.23;96766.28;587171;241;66724;-73
2022/09/11 09:08:59;;;;;;;;;;;;;;;22.08;83.21;96767.08;587178;241;63033;-73
2022/09/11 09:11:33;;;;;;;;;;;;;;;22.08;83.25;96761.73;587164;241;64789;-73
2022/09/11 09:14:04;;;;;;;;;;;;;;;22.08;83.18;96760.94;587178;241;67023;-73
2022/09/11 09:16:44;;;;;;;;;;;;;;;22.08;83.28;96751.02;587187;241;63166;-73
2022/09/11 09:19:14;;;;;;;;;;;;;;;22.08;83.26;96751.02;586532;241;64470;-74
2022/09/11 09:21:44;;;;;;;;;;;;;;;22.09;83.27;96743.78;585011;242;66866;-73
2022/09/11 09:24:18;;;;;;;;;;;;;;;22.08;83.28;96747.55;585108;242;65103;-74
2022/09/11 09:26:43;;;;;;;;;;;;;;;22.08;83.29;96747.55;585080;242;67287;-73
2022/09/11 09:29:12;;;;;;;;;;;;;;;22.09;83.26;96743.78;585243;242;66825;-74
2022/09/11 09:31:41;;;;;;;;;;;;;;;22.09;83.31;96749.14;585221;242;65295;-74
2022/09/11 09:34:19;;;;;;;;;;;;;;;22.08;83.29;96742.99;585257;242;64628;-73
2022/09/11 09:36:52;;;;;;;;;;;;;;;22.09;83.22;96751.81;584991;242;67606;-73
2022/09/11 09:39:21;;;;;;;;;;;;;;;22.08;83.22;96744.88;585228;242;62871;-73
2022/09/11 09:42:07;;;;;;;;;;;;;;;22.09;83.25;96743.78;585223;242;66951;-73
2022/09/11 09:44:52;;;;;;;;;;;;;;;22.09;83.28;96738.43;585233;242;64704;-73
2022/09/11 09:47:20;;;;;;;;;;;;;;;22.09;83.24;96741.90;585216;242;65412;-73
2022/09/11 09:49:48;;;;;;;;;;;;;;;22.08;83.26;96734.97;585238;242;66975;-73
2022/09/11 09:52:17;;;;;;;;;;;;;;;22.08;83.29;96734.17;585240;242;66950;-73
2022/09/11 09:54:50;;;;;;;;;;;;;;;22.08;83.31;96734.17;585226;242;65036;-73
2022/09/11 09:57:18;;;;;;;;;;;;;;;22.08;83.31;96732.29;585147;242;64592;-72
2022/09/11 09:59:53;;;;;;;;;;;;;;;22.09;83.31;96730.41;585223;242;66613;-74
2022/09/11 10:02:38;;;;;;;;;;;;;;;22.09;83.29;96727.73;585206;242;61373;-73
2022/09/11 10:05:08;;;;;;;;;;;;;;;22.08;83.33;96724.26;585248;242;64715;-73
2022/09/11 10:07:35;;;;;;;;;;;;;;;22.08;83.31;96716.23;584590;242;66511;-72
2022/09/11 10:10:03;;;;;;;;;;;;;;;22.09;83.35;96720.48;585208;242;63079;-74
2022/09/11 10:12:31;;;;;;;;;;;;;;;22.09;83.37;96709.00;585220;242;66914;-73
2022/09/11 10:15:00;;;;;;;;;;;;;;;22.09;83.38;96714.34;585203;242;67201;-74
2022/09/11 10:17:30;;;;;;;;;;;;;;;22.09;83.36;96709.00;585066;242;62975;-73
2022/09/11 10:20:25;;;;;;;;;;;;;;;22.10;83.37;96707.93;585174;242;66937;-73
2022/09/11 10:22:53;;;;;;;;;;;;;;;22.09;83.35;96703.64;585227;242;64717;-73
2022/09/11 10:25:25;;;;;;;;;;;;;;;22.09;83.37;96698.30;585220;242;65099;-74
2022/09/11 10:27:58;;;;;;;;;;;;;;;22.10;83.37;96694.55;585217;242;66991;-73
2022/09/11 10:30:33;;;;;;;;;;;;;;;22.09;83.37;96698.30;585233;242;64820;-73
2022/09/11 10:33:02;;;;;;;;;;;;;;;22.09;83.33;96693.73;585267;242;64919;-73
2022/09/11 10:35:31;;;;;;;;;;;;;;;22.09;83.36;96699.08;585238;242;66726;-74
2022/09/11 10:38:06;;;;;;;;;;;;;;;22.09;83.30;96696.41;585214;242;64705;-73
2022/09/11 10:40:33;;;;;;;;;;;;;;;22.09;83.30;96699.08;585161;242;63004;-74
2022/09/11 10:43:01;;;;;;;;;;;;;;;22.10;83.26;96699.91;585206;242;67306;-73
2022/09/11 10:45:30;;;;;;;;;;;;;;;22.10;83.25;96686.52;585226;242;66937;-74
2022/09/11 10:47:59;;;;;;;;;;;;;;;22.09;83.19;96692.94;585249;242;65094;-74
2022/09/11 10:50:27;;;;;;;;;;;;;;;22.10;83.15;96694.55;584621;242;66979;-73
2022/09/11 10:52:59;;;;;;;;;;;;;;;22.10;83.12;96684.64;585242;242;64641;-74
2022/09/11 10:55:28;;;;;;;;;;;;;;;22.10;83.09;96686.52;585202;242;63085;-73
2022/09/11 10:57:57;;;;;;;;;;;;;;;22.10;83.10;96687.31;585213;242;64647;-73
2022/09/11 11:00:26;;;;;;;;;;;;;;;22.10;83.12;96686.52;585185;242;64628;-73
2022/09/11 11:03:03;;;;;;;;;;;;;;;22.10;83.14;96689.20;585256;242;63028;-73
2022/09/11 11:05:38;;;;;;;;;;;;;;;22.10;83.12;96689.20;585198;242;66937;-73
2022/09/11 11:08:16;;;;;;;;;;;;;;;22.11;83.09;96686.22;585220;242;66691;-73
2022/09/11 11:10:50;;;;;;;;;;;;;;;22.09;83.11;96677.67;584838;242;63088;-73
2022/09/11 11:13:27;;;;;;;;;;;;;;;22.11;83.09;96680.08;585153;242;66769;-73
2022/09/11 11:15:56;;;;;;;;;;;;;;;22.11;83.13;96685.43;585235;242;66872;-73
2022/09/11 11:18:43;;;;;;;;;;;;;;;22.10;83.18;96673.14;584420;242;65399;-73
2022/09/11 11:21:16;;;;;;;;;;;;;;;22.11;83.18;96674.73;585245;242;66755;-73
2022/09/11 11:23:51;;;;;;;;;;;;;;;22.10;83.20;96670.47;585246;242;66275;-74
2022/09/11 11:26:29;;;;;;;;;;;;;;;22.11;83.21;96677.40;585198;242;63105;-73
2022/09/11 11:29:01;;;;;;;;;;;;;;;22.11;83.21;96680.08;585223;242;66918;-73
2022/09/11 11:31:33;;;;;;;;;;;;;;;22.11;83.22;96664.02;584924;242;66746;-73
2022/09/11 11:34:02;;;;;;;;;;;;;;;22.10;83.23;96668.58;584995;242;63040;-73
2022/09/11 11:36:44;;;;;;;;;;;;;;;22.10;83.19;96660.55;585247;242;64683;-73
2022/09/11 11:39:25;;;;;;;;;;;;;;;22.11;83.18;96658.67;585206;242;66907;-73
2022/09/11 11:41:54;;;;;;;;;;;;;;;22.10;83.20;96654.41;585211;242;62898;-73
2022/09/11 11:44:23;;;;;;;;;;;;;;;22.10;83.23;96655.20;585031;242;67074;-73
2022/09/11 11:46:54;;;;;;;;;;;;;;;22.10;83.27;96649.84;585015;242;66382;-74
2022/09/11 11:49:22;;;;;;;;;;;;;;;22.11;83.25;96642.61;585248;242;64723;-73
2022/09/11 11:51:51;;;;;;;;;;;;;;;22.10;83.28;96641.03;585098;242;66726;-73
2022/09/11 11:54:20;;;;;;;;;;;;;;;22.11;83.25;96640.73;581460;242;66717;-74
2022/09/11 11:56:53;;;;;;;;;;;;;;;22.11;83.24;96646.08;585182;242;65125;-73
2022/09/11 11:59:38;;;;;;;;;;;;;;;22.11;83.23;96639.94;585218;242;67159;-73
2022/09/11 12:02:11;;;;;;;;;;;;;;;22.11;83.25;96642.61;572654;247;66571;-74
2022/09/11 12:04:42;;;;;;;;;;;;;;;22.11;83.25;96642.61;581559;242;62953;-73
2022/09/11 12:07:15;;;;;;;;;;;;;;;22.11;83.18;96646.08;585179;242;64539;-73
2022/09/11 12:09:48;;;;;;;;;;;;;;;22.11;83.17;96639.94;585197;239;66571;-73
2022/09/11 12:12:17;;;;;;;;;;;;;;;22.12;83.16;96641.52;585229;242;65104;-73
2022/09/11 12:14:53;;;;;;;;;;;;;;;22.11;83.13;96638.05;585270;242;67079;-73
2022/09/11 12:17:34;;;;;;;;;;;;;;;22.10;83.18;96643.70;585249;242;66992;-73
2022/09/11 12:20:13;;;;;;;;;;;;;;;22.12;83.17;96644.19;586337;241;65058;-73
2022/09/11 12:22:42;;;;;;;;;;;;;;;22.12;83.17;96646.87;587146;241;66736;-73
2022/09/11 12:25:20;;;;;;;;;;;;;;;22.12;83.18;96638.84;587202;241;64642;-73
2022/09/11 12:27:54;;;;;;;;;;;;;;;22.12;83.20;96641.52;587174;241;63162;-73
2022/09/11 12:30:21;;;;;;;;;;;;;;;22.13;83.23;96632.42;586912;241;67047;-73
2022/09/11 12:32:49;;;;;;;;;;;;;;;22.11;83.22;96632.70;587181;241;66951;-73
2022/09/11 12:35:20;;;;;;;;;;;;;;;22.11;83.26;96631.91;587118;241;63014;-73
2022/09/11 12:37:49;;;;;;;;;;;;;;;22.12;83.27;96634.28;587200;241;64565;-73
2022/09/11 12:40:19;;;;;;;;;;;;;;;22.11;83.22;96623.87;583410;241;66741;-73
2022/09/11 12:42:48;;;;;;;;;;;;;;;22.12;83.26;96628.14;587099;241;65229;-73
2022/09/11 12:45:35;;;;;;;;;;;;;;;22.12;83.26;96617.44;586957;241;64783;-72
2022/09/11 12:48:04;;;;;;;;;;;;;;;22.12;83.16;96614.75;587123;241;65086;-68
2022/09/11 12:50:32;;;;;;;;;;;;;;;22.12;83.14;96620.11;587133;241;63241;-75
2022/09/11 12:53:01;;;;;;;;;;;;;;;22.13;80.48;96619.05;587176;241;67137;-74
2022/09/11 12:55:30;;;;;;;;;;;;;;;22.13;81.93;96619.83;587173;241;64689;-74
2022/09/11 12:58:01;;;;;;;;;;;;;;;22.13;82.32;96621.72;587160;241;65159;-74
2022/09/11 13:00:41;;;;;;;;;;;;;;;22.14;82.83;96621.41;587144;241;67015;-74
2022/09/11 13:03:10;;;;;;;;;;;;;;;22.14;82.99;96617.95;587177;241;64549;-74
2022/09/11 13:05:39;;;;;;;;;;;;;;;22.13;83.08;96621.72;586524;241;65229;-74